sensor_id;sensor_type;location;lat;lon;timestamp;P1;durP1;ratioP1;P2;durP2;ratioP2
15944;SDS011;30172;48.832;8.732;2022-09-16T00:02:16;8.90;;;5.40;;
15944;SDS011;30172;48.832;8.732;2022-09-16T00:04:41;11.13;;;6.60;;
15944;SDS011;30172;48.832;8.732;2022-09-16T00:07:06;7.03;;;5.40;;
15944;SDS011;30172;48.832;8.732;2022-09-16T00:09:32;10.57;;;5.70;;
15944;SDS011;30172;48.832;8.732;2022-09-16T00:11:57;7.45;;;5.95;;
15944;SDS011;30172;48.832;8.732;2022-09-16T00:14:22;6.57;;;5.67;;
15944;SDS011;30172;48.832;8.732;2022-09-16T00:16:48;8.30;;;5.72;;
15944;SDS011;30172;48.832;8.732;2022-09-16T00:19:13;7.17;;;5.17;;
15944;SDS011;30172;48.832;8.732;2022-09-16T00:21:38;7.50;;;6.07;;
15944;SDS011;30172;48.832;8.732;2022-09-16T00:24:03;5.80;;;5.20;;
15944;SDS011;30172;48.832;8.732;2022-09-16T00:26:29;7.40;;;5.20;;
15944;SDS011;30172;48.832;8.732;2022-09-16T00:28:55;6.30;;;5.10;;
15944;SDS011;30172;48.832;8.732;2022-09-16T00:31:20;7.50;;;5.70;;
15944;SDS011;30172;48.832;8.732;2022-09-16T00:33:45;6.37;;;5.00;;
15944;SDS011;30172;48.832;8.732;2022-09-16T00:36:15;5.97;;;5.23;;
15944;SDS011;30172;48.832;8.732;2022-09-16T00:38:41;7.63;;;5.88;;
15944;SDS011;30172;48.832;8.732;2022-09-16T00:41:08;6.80;;;5.67;;
15944;SDS011;30172;48.832;8.732;2022-09-16T00:46:51;11.90;;;6.18;;
15944;SDS011;30172;48.832;8.732;2022-09-16T00:49:21;7.77;;;5.33;;
15944;SDS011;30172;48.832;8.732;2022-09-16T00:51:50;8.20;;;5.90;;
15944;SDS011;30172;48.832;8.732;2022-09-16T00:54:16;6.40;;;5.80;;
15944;SDS011;30172;48.832;8.732;2022-09-16T00:56:43;8.05;;;6.13;;
15944;SDS011;30172;48.832;8.732;2022-09-16T00:59:15;10.63;;;6.80;;
15944;SDS011;30172;48.832;8.732;2022-09-16T01:01:42;8.00;;;6.40;;
15944;SDS011;30172;48.832;8.732;2022-09-16T01:04:12;6.60;;;5.87;;
15944;SDS011;30172;48.832;8.732;2022-09-16T01:06:40;13.48;;;6.68;;
15944;SDS011;30172;48.832;8.732;2022-09-16T01:09:05;7.67;;;6.57;;
15944;SDS011;30172;48.832;8.732;2022-09-16T01:11:31;8.10;;;6.50;;
15944;SDS011;30172;48.832;8.732;2022-09-16T01:13:56;7.70;;;6.70;;
15944;SDS011;30172;48.832;8.732;2022-09-16T01:16:43;8.87;;;7.37;;
15944;SDS011;30172;48.832;8.732;2022-09-16T01:21:57;10.13;;;7.87;;
15944;SDS011;30172;48.832;8.732;2022-09-16T01:24:38;9.80;;;7.73;;
15944;SDS011;30172;48.832;8.732;2022-09-16T01:27:17;9.13;;;7.17;;
15944;SDS011;30172;48.832;8.732;2022-09-16T01:35:03;9.40;;;6.53;;
15944;SDS011;30172;48.832;8.732;2022-09-16T01:40:06;11.50;;;6.33;;
15944;SDS011;30172;48.832;8.732;2022-09-16T01:42:40;7.37;;;6.00;;
15944;SDS011;30172;48.832;8.732;2022-09-16T01:45:15;10.23;;;6.13;;
15944;SDS011;30172;48.832;8.732;2022-09-16T01:48:07;8.07;;;5.90;;
15944;SDS011;30172;48.832;8.732;2022-09-16T01:50:36;7.77;;;5.80;;
15944;SDS011;30172;48.832;8.732;2022-09-16T01:53:08;8.93;;;6.07;;
15944;SDS011;30172;48.832;8.732;2022-09-16T01:55:41;9.73;;;6.20;;
15944;SDS011;30172;48.832;8.732;2022-09-16T01:58:14;6.97;;;6.27;;
15944;SDS011;30172;48.832;8.732;2022-09-16T02:00:50;12.80;;;6.30;;
15944;SDS011;30172;48.832;8.732;2022-09-16T02:03:18;9.07;;;4.90;;
15944;SDS011;30172;48.832;8.732;2022-09-16T02:05:53;6.73;;;5.30;;
15944;SDS011;30172;48.832;8.732;2022-09-16T02:08:44;9.30;;;5.93;;
15944;SDS011;30172;48.832;8.732;2022-09-16T02:11:14;10.03;;;5.63;;
15944;SDS011;30172;48.832;8.732;2022-09-16T02:13:41;6.00;;;5.40;;
15944;SDS011;30172;48.832;8.732;2022-09-16T02:16:11;11.40;;;5.97;;
15944;SDS011;30172;48.832;8.732;2022-09-16T02:18:40;8.43;;;5.90;;
15944;SDS011;30172;48.832;8.732;2022-09-16T02:21:06;7.88;;;6.10;;
15944;SDS011;30172;48.832;8.732;2022-09-16T02:23:36;6.10;;;5.60;;
15944;SDS011;30172;48.832;8.732;2022-09-16T02:26:04;11.20;;;6.97;;
15944;SDS011;30172;48.832;8.732;2022-09-16T02:28:32;7.93;;;6.93;;
15944;SDS011;30172;48.832;8.732;2022-09-16T02:31:02;10.00;;;6.73;;
15944;SDS011;30172;48.832;8.732;2022-09-16T02:33:32;8.80;;;6.57;;
15944;SDS011;30172;48.832;8.732;2022-09-16T02:36:02;7.93;;;6.63;;
15944;SDS011;30172;48.832;8.732;2022-09-16T02:38:29;10.10;;;7.57;;
15944;SDS011;30172;48.832;8.732;2022-09-16T02:40:58;13.38;;;7.32;;
15944;SDS011;30172;48.832;8.732;2022-09-16T02:43:25;8.97;;;7.30;;
15944;SDS011;30172;48.832;8.732;2022-09-16T02:46:37;7.40;;;6.67;;
15944;SDS011;30172;48.832;8.732;2022-09-16T02:48:54;9.47;;;7.43;;
15944;SDS011;30172;48.832;8.732;2022-09-16T02:54:24;11.20;;;8.20;;
15944;SDS011;30172;48.832;8.732;2022-09-16T02:56:54;11.45;;;8.68;;
15944;SDS011;30172;48.832;8.732;2022-09-16T02:59:20;11.75;;;8.57;;
15944;SDS011;30172;48.832;8.732;2022-09-16T03:01:46;10.48;;;8.98;;
15944;SDS011;30172;48.832;8.732;2022-09-16T03:04:12;11.90;;;9.63;;
15944;SDS011;30172;48.832;8.732;2022-09-16T03:06:40;11.45;;;9.52;;
15944;SDS011;30172;48.832;8.732;2022-09-16T03:09:06;12.50;;;10.00;;
15944;SDS011;30172;48.832;8.732;2022-09-16T03:11:48;11.07;;;9.50;;
15944;SDS011;30172;48.832;8.732;2022-09-16T03:23:30;18.07;;;9.43;;
15944;SDS011;30172;48.832;8.732;2022-09-16T03:28:44;11.83;;;8.43;;
15944;SDS011;30172;48.832;8.732;2022-09-16T03:33:50;8.67;;;7.63;;
15944;SDS011;30172;48.832;8.732;2022-09-16T03:36:19;13.50;;;8.80;;
15944;SDS011;30172;48.832;8.732;2022-09-16T03:38:47;9.10;;;7.57;;
15944;SDS011;30172;48.832;8.732;2022-09-16T03:41:13;8.67;;;7.13;;
15944;SDS011;30172;48.832;8.732;2022-09-16T03:43:39;9.90;;;7.63;;
15944;SDS011;30172;48.832;8.732;2022-09-16T03:46:08;8.07;;;6.57;;
15944;SDS011;30172;48.832;8.732;2022-09-16T03:48:34;10.30;;;6.50;;
15944;SDS011;30172;48.832;8.732;2022-09-16T03:51:00;10.13;;;6.03;;
15944;SDS011;30172;48.832;8.732;2022-09-16T03:53:25;10.40;;;6.30;;
15944;SDS011;30172;48.832;8.732;2022-09-16T03:55:50;7.47;;;6.13;;
15944;SDS011;30172;48.832;8.732;2022-09-16T03:58:16;9.87;;;5.40;;
15944;SDS011;30172;48.832;8.732;2022-09-16T04:00:41;12.63;;;5.57;;
15944;SDS011;30172;48.832;8.732;2022-09-16T04:03:06;6.30;;;5.70;;
15944;SDS011;30172;48.832;8.732;2022-09-16T04:05:31;9.13;;;5.67;;
15944;SDS011;30172;48.832;8.732;2022-09-16T04:07:57;8.27;;;5.50;;
15944;SDS011;30172;48.832;8.732;2022-09-16T04:10:22;7.00;;;4.97;;
15944;SDS011;30172;48.832;8.732;2022-09-16T04:12:47;9.70;;;5.70;;
15944;SDS011;30172;48.832;8.732;2022-09-16T04:15:13;12.00;;;5.60;;
15944;SDS011;30172;48.832;8.732;2022-09-16T04:17:38;10.27;;;4.93;;
15944;SDS011;30172;48.832;8.732;2022-09-16T04:20:04;6.47;;;4.80;;
15944;SDS011;30172;48.832;8.732;2022-09-16T04:22:31;7.27;;;5.27;;
15944;SDS011;30172;48.832;8.732;2022-09-16T04:24:56;9.40;;;5.40;;
15944;SDS011;30172;48.832;8.732;2022-09-16T04:27:22;7.77;;;5.90;;
15944;SDS011;30172;48.832;8.732;2022-09-16T04:29:47;6.57;;;5.57;;
15944;SDS011;30172;48.832;8.732;2022-09-16T04:32:13;6.40;;;5.23;;
15944;SDS011;30172;48.832;8.732;2022-09-16T04:34:38;7.73;;;5.50;;
15944;SDS011;30172;48.832;8.732;2022-09-16T04:37:04;8.63;;;5.53;;
15944;SDS011;30172;48.832;8.732;2022-09-16T04:39:29;5.87;;;4.70;;
15944;SDS011;30172;48.832;8.732;2022-09-16T04:41:55;7.27;;;4.40;;
15944;SDS011;30172;48.832;8.732;2022-09-16T04:44:20;7.10;;;4.97;;
15944;SDS011;30172;48.832;8.732;2022-09-16T04:46:45;8.73;;;4.73;;
15944;SDS011;30172;48.832;8.732;2022-09-16T04:49:11;7.33;;;4.80;;
15944;SDS011;30172;48.832;8.732;2022-09-16T04:51:36;11.60;;;5.30;;
15944;SDS011;30172;48.832;8.732;2022-09-16T04:54:02;9.60;;;5.33;;
15944;SDS011;30172;48.832;8.732;2022-09-16T04:56:28;7.90;;;5.10;;
15944;SDS011;30172;48.832;8.732;2022-09-16T04:58:57;9.77;;;5.87;;
15944;SDS011;30172;48.832;8.732;2022-09-16T05:01:24;11.13;;;5.53;;
15944;SDS011;30172;48.832;8.732;2022-09-16T05:03:52;9.33;;;5.47;;
15944;SDS011;30172;48.832;8.732;2022-09-16T05:06:19;7.93;;;5.10;;
15944;SDS011;30172;48.832;8.732;2022-09-16T05:08:49;7.30;;;5.40;;
15944;SDS011;30172;48.832;8.732;2022-09-16T05:11:17;9.00;;;5.40;;
15944;SDS011;30172;48.832;8.732;2022-09-16T05:13:44;9.13;;;5.10;;
15944;SDS011;30172;48.832;8.732;2022-09-16T05:16:10;6.23;;;4.90;;
15944;SDS011;30172;48.832;8.732;2022-09-16T05:18:37;11.20;;;5.67;;
15944;SDS011;30172;48.832;8.732;2022-09-16T05:21:05;7.43;;;5.27;;
15944;SDS011;30172;48.832;8.732;2022-09-16T05:23:31;5.90;;;5.17;;
15944;SDS011;30172;48.832;8.732;2022-09-16T05:26:01;8.57;;;4.77;;
15944;SDS011;30172;48.832;8.732;2022-09-16T05:28:28;13.30;;;5.30;;
15944;SDS011;30172;48.832;8.732;2022-09-16T05:30:53;5.80;;;5.00;;
15944;SDS011;30172;48.832;8.732;2022-09-16T05:33:18;6.27;;;5.63;;
15944;SDS011;30172;48.832;8.732;2022-09-16T05:35:44;5.93;;;4.80;;
15944;SDS011;30172;48.832;8.732;2022-09-16T05:38:10;9.47;;;5.70;;
15944;SDS011;30172;48.832;8.732;2022-09-16T05:40:35;9.13;;;5.53;;
15944;SDS011;30172;48.832;8.732;2022-09-16T05:43:01;8.63;;;5.43;;
15944;SDS011;30172;48.832;8.732;2022-09-16T05:45:26;12.40;;;5.30;;
15944;SDS011;30172;48.832;8.732;2022-09-16T05:47:51;10.17;;;5.23;;
15944;SDS011;30172;48.832;8.732;2022-09-16T05:50:17;9.30;;;5.50;;
15944;SDS011;30172;48.832;8.732;2022-09-16T05:52:42;9.07;;;5.70;;
15944;SDS011;30172;48.832;8.732;2022-09-16T05:55:08;9.80;;;5.77;;
15944;SDS011;30172;48.832;8.732;2022-09-16T05:57:33;8.00;;;5.13;;
15944;SDS011;30172;48.832;8.732;2022-09-16T05:59:59;6.60;;;5.10;;
15944;SDS011;30172;48.832;8.732;2022-09-16T06:02:25;7.77;;;5.30;;
15944;SDS011;30172;48.832;8.732;2022-09-16T06:04:50;7.83;;;5.43;;
15944;SDS011;30172;48.832;8.732;2022-09-16T06:07:15;6.10;;;5.23;;
15944;SDS011;30172;48.832;8.732;2022-09-16T06:09:41;9.77;;;5.97;;
15944;SDS011;30172;48.832;8.732;2022-09-16T06:12:06;8.87;;;5.67;;
15944;SDS011;30172;48.832;8.732;2022-09-16T06:14:33;10.07;;;5.53;;
15944;SDS011;30172;48.832;8.732;2022-09-16T06:16:58;10.30;;;5.47;;
15944;SDS011;30172;48.832;8.732;2022-09-16T06:19:24;11.73;;;6.00;;
15944;SDS011;30172;48.832;8.732;2022-09-16T06:21:49;12.40;;;6.83;;
15944;SDS011;30172;48.832;8.732;2022-09-16T06:24:15;9.90;;;6.63;;
15944;SDS011;30172;48.832;8.732;2022-09-16T06:26:42;7.90;;;6.40;;
15944;SDS011;30172;48.832;8.732;2022-09-16T06:29:08;14.93;;;6.67;;
15944;SDS011;30172;48.832;8.732;2022-09-16T06:31:34;9.27;;;6.90;;
15944;SDS011;30172;48.832;8.732;2022-09-16T06:34:00;9.60;;;6.70;;
15944;SDS011;30172;48.832;8.732;2022-09-16T06:36:32;12.93;;;8.67;;
15944;SDS011;30172;48.832;8.732;2022-09-16T06:39:01;9.07;;;7.00;;
15944;SDS011;30172;48.832;8.732;2022-09-16T06:41:26;10.57;;;7.93;;
15944;SDS011;30172;48.832;8.732;2022-09-16T06:43:52;13.80;;;8.57;;
15944;SDS011;30172;48.832;8.732;2022-09-16T06:46:22;10.97;;;7.53;;
15944;SDS011;30172;48.832;8.732;2022-09-16T06:48:49;13.27;;;8.10;;
15944;SDS011;30172;48.832;8.732;2022-09-16T06:51:23;10.93;;;7.73;;
15944;SDS011;30172;48.832;8.732;2022-09-16T06:53:50;12.17;;;7.50;;
15944;SDS011;30172;48.832;8.732;2022-09-16T06:56:18;10.53;;;7.73;;
15944;SDS011;30172;48.832;8.732;2022-09-16T06:58:45;14.33;;;7.03;;
15944;SDS011;30172;48.832;8.732;2022-09-16T07:01:18;10.37;;;7.13;;
15944;SDS011;30172;48.832;8.732;2022-09-16T07:03:45;9.07;;;6.97;;
15944;SDS011;30172;48.832;8.732;2022-09-16T07:06:13;9.53;;;7.67;;
15944;SDS011;30172;48.832;8.732;2022-09-16T07:08:39;10.33;;;7.97;;
15944;SDS011;30172;48.832;8.732;2022-09-16T07:11:06;10.60;;;7.60;;
15944;SDS011;30172;48.832;8.732;2022-09-16T07:13:33;8.17;;;7.30;;
15944;SDS011;30172;48.832;8.732;2022-09-16T07:15:59;12.90;;;8.53;;
15944;SDS011;30172;48.832;8.732;2022-09-16T07:18:26;7.93;;;7.07;;
15944;SDS011;30172;48.832;8.732;2022-09-16T07:20:51;7.67;;;6.63;;
15944;SDS011;30172;48.832;8.732;2022-09-16T07:23:17;7.93;;;7.00;;
15944;SDS011;30172;48.832;8.732;2022-09-16T07:25:42;9.67;;;6.97;;
15944;SDS011;30172;48.832;8.732;2022-09-16T07:28:07;9.70;;;6.90;;
15944;SDS011;30172;48.832;8.732;2022-09-16T07:30:33;12.30;;;7.03;;
15944;SDS011;30172;48.832;8.732;2022-09-16T07:32:58;8.30;;;6.80;;
15944;SDS011;30172;48.832;8.732;2022-09-16T07:35:24;9.27;;;6.60;;
15944;SDS011;30172;48.832;8.732;2022-09-16T07:37:49;8.67;;;6.90;;
15944;SDS011;30172;48.832;8.732;2022-09-16T07:40:15;8.07;;;6.93;;
15944;SDS011;30172;48.832;8.732;2022-09-16T07:42:41;7.17;;;6.17;;
15944;SDS011;30172;48.832;8.732;2022-09-16T07:45:07;9.20;;;7.13;;
15944;SDS011;30172;48.832;8.732;2022-09-16T07:47:32;14.17;;;10.93;;
15944;SDS011;30172;48.832;8.732;2022-09-16T07:49:58;11.50;;;8.63;;
15944;SDS011;30172;48.832;8.732;2022-09-16T07:52:23;12.33;;;7.87;;
15944;SDS011;30172;48.832;8.732;2022-09-16T07:54:53;9.13;;;7.07;;
15944;SDS011;30172;48.832;8.732;2022-09-16T07:57:19;7.60;;;6.73;;
15944;SDS011;30172;48.832;8.732;2022-09-16T07:59:44;7.43;;;6.70;;
15944;SDS011;30172;48.832;8.732;2022-09-16T08:02:09;9.43;;;6.00;;
15944;SDS011;30172;48.832;8.732;2022-09-16T08:04:35;5.57;;;5.07;;
15944;SDS011;30172;48.832;8.732;2022-09-16T08:07:00;8.20;;;5.73;;
15944;SDS011;30172;48.832;8.732;2022-09-16T08:09:25;8.57;;;5.20;;
15944;SDS011;30172;48.832;8.732;2022-09-16T08:11:51;5.87;;;4.90;;
15944;SDS011;30172;48.832;8.732;2022-09-16T08:14:16;9.10;;;4.93;;
15944;SDS011;30172;48.832;8.732;2022-09-16T08:16:41;6.85;;;5.53;;
15944;SDS011;30172;48.832;8.732;2022-09-16T08:19:07;6.97;;;4.78;;
15944;SDS011;30172;48.832;8.732;2022-09-16T08:21:33;5.43;;;4.40;;
15944;SDS011;30172;48.832;8.732;2022-09-16T08:23:58;5.82;;;3.95;;
15944;SDS011;30172;48.832;8.732;2022-09-16T08:26:24;4.82;;;3.90;;
15944;SDS011;30172;48.832;8.732;2022-09-16T08:28:50;6.95;;;4.28;;
15944;SDS011;30172;48.832;8.732;2022-09-16T08:31:15;6.95;;;4.15;;
15944;SDS011;30172;48.832;8.732;2022-09-16T08:33:41;8.80;;;3.60;;
15944;SDS011;30172;48.832;8.732;2022-09-16T08:36:11;3.83;;;3.45;;
15944;SDS011;30172;48.832;8.732;2022-09-16T08:38:39;6.45;;;2.92;;
15944;SDS011;30172;48.832;8.732;2022-09-16T08:44:20;3.85;;;3.55;;
15944;SDS011;30172;48.832;8.732;2022-09-16T08:46:53;4.28;;;3.35;;
15944;SDS011;30172;48.832;8.732;2022-09-16T08:52:09;8.15;;;4.40;;
15944;SDS011;30172;48.832;8.732;2022-09-16T08:54:38;3.58;;;3.30;;
15944;SDS011;30172;48.832;8.732;2022-09-16T08:57:07;3.88;;;3.58;;
15944;SDS011;30172;48.832;8.732;2022-09-16T08:59:38;6.57;;;3.63;;
15944;SDS011;30172;48.832;8.732;2022-09-16T09:05:01;5.82;;;3.85;;
15944;SDS011;30172;48.832;8.732;2022-09-16T09:16:03;5.55;;;3.40;;
15944;SDS011;30172;48.832;8.732;2022-09-16T09:18:44;4.57;;;3.50;;
15944;SDS011;30172;48.832;8.732;2022-09-16T09:21:17;4.32;;;2.78;;
15944;SDS011;30172;48.832;8.732;2022-09-16T09:26:55;4.00;;;2.38;;
15944;SDS011;30172;48.832;8.732;2022-09-16T09:32:06;5.53;;;2.70;;
15944;SDS011;30172;48.832;8.732;2022-09-16T09:37:34;4.32;;;2.60;;
15944;SDS011;30172;48.832;8.732;2022-09-16T09:43:16;5.75;;;2.63;;
15944;SDS011;30172;48.832;8.732;2022-09-16T09:46:01;5.03;;;2.15;;
15944;SDS011;30172;48.832;8.732;2022-09-16T09:51:15;5.85;;;2.30;;
15944;SDS011;30172;48.832;8.732;2022-09-16T09:53:47;4.10;;;2.15;;
15944;SDS011;30172;48.832;8.732;2022-09-16T09:56:21;3.63;;;2.45;;
15944;SDS011;30172;48.832;8.732;2022-09-16T10:01:17;7.07;;;2.95;;
15944;SDS011;30172;48.832;8.732;2022-09-16T10:03:42;6.30;;;3.00;;
15944;SDS011;30172;48.832;8.732;2022-09-16T10:06:09;6.05;;;3.28;;
15944;SDS011;30172;48.832;8.732;2022-09-16T10:08:36;5.53;;;3.20;;
15944;SDS011;30172;48.832;8.732;2022-09-16T10:11:18;3.20;;;2.95;;
15944;SDS011;30172;48.832;8.732;2022-09-16T10:14:02;9.90;;;3.25;;
15944;SDS011;30172;48.832;8.732;2022-09-16T10:16:31;5.53;;;2.77;;
15944;SDS011;30172;48.832;8.732;2022-09-16T10:21:48;4.35;;;2.20;;
15944;SDS011;30172;48.832;8.732;2022-09-16T10:24:39;2.53;;;2.20;;
15944;SDS011;30172;48.832;8.732;2022-09-16T10:27:17;3.17;;;2.70;;
15944;SDS011;30172;48.832;8.732;2022-09-16T10:32:29;4.13;;;2.72;;
15944;SDS011;30172;48.832;8.732;2022-09-16T10:34:55;3.00;;;1.95;;
15944;SDS011;30172;48.832;8.732;2022-09-16T10:37:20;4.20;;;2.30;;
15944;SDS011;30172;48.832;8.732;2022-09-16T10:39:50;2.50;;;2.10;;
15944;SDS011;30172;48.832;8.732;2022-09-16T10:42:18;3.47;;;2.22;;
15944;SDS011;30172;48.832;8.732;2022-09-16T10:44:45;3.38;;;2.55;;
15944;SDS011;30172;48.832;8.732;2022-09-16T10:47:17;7.18;;;2.70;;
15944;SDS011;30172;48.832;8.732;2022-09-16T10:49:53;3.58;;;2.40;;
15944;SDS011;30172;48.832;8.732;2022-09-16T10:52:25;6.72;;;2.85;;
15944;SDS011;30172;48.832;8.732;2022-09-16T10:54:52;5.17;;;2.63;;
15944;SDS011;30172;48.832;8.732;2022-09-16T10:57:27;6.03;;;2.53;;
15944;SDS011;30172;48.832;8.732;2022-09-16T11:00:17;3.40;;;2.23;;
15944;SDS011;30172;48.832;8.732;2022-09-16T11:11:33;6.20;;;2.77;;
15944;SDS011;30172;48.832;8.732;2022-09-16T11:14:16;3.87;;;2.57;;
15944;SDS011;30172;48.832;8.732;2022-09-16T11:20:04;6.97;;;2.80;;
15944;SDS011;30172;48.832;8.732;2022-09-16T11:22:42;5.97;;;2.20;;
15944;SDS011;30172;48.832;8.732;2022-09-16T11:25:18;4.70;;;3.35;;
15944;SDS011;30172;48.832;8.732;2022-09-16T11:33:38;6.38;;;2.95;;
15944;SDS011;30172;48.832;8.732;2022-09-16T11:36:14;3.75;;;2.60;;
15944;SDS011;30172;48.832;8.732;2022-09-16T11:38:52;3.38;;;2.45;;
15944;SDS011;30172;48.832;8.732;2022-09-16T11:41:30;3.90;;;2.70;;
15944;SDS011;30172;48.832;8.732;2022-09-16T11:46:51;5.20;;;2.42;;
15944;SDS011;30172;48.832;8.732;2022-09-16T11:49:42;4.97;;;2.50;;
15944;SDS011;30172;48.832;8.732;2022-09-16T11:52:15;4.60;;;2.33;;
15944;SDS011;30172;48.832;8.732;2022-09-16T11:55:11;3.83;;;2.20;;
15944;SDS011;30172;48.832;8.732;2022-09-16T11:57:43;7.13;;;2.35;;
15944;SDS011;30172;48.832;8.732;2022-09-16T12:00:11;6.00;;;2.58;;
15944;SDS011;30172;48.832;8.732;2022-09-16T12:05:29;6.45;;;2.65;;
15944;SDS011;30172;48.832;8.732;2022-09-16T12:08:18;5.88;;;2.80;;
15944;SDS011;30172;48.832;8.732;2022-09-16T12:10:56;4.60;;;2.75;;
15944;SDS011;30172;48.832;8.732;2022-09-16T12:13:28;4.47;;;2.42;;
15944;SDS011;30172;48.832;8.732;2022-09-16T12:16:07;4.90;;;2.70;;
15944;SDS011;30172;48.832;8.732;2022-09-16T12:18:35;5.22;;;2.70;;
15944;SDS011;30172;48.832;8.732;2022-09-16T12:23:55;5.15;;;2.40;;
15944;SDS011;30172;48.832;8.732;2022-09-16T12:26:24;4.95;;;2.53;;
15944;SDS011;30172;48.832;8.732;2022-09-16T12:29:03;3.88;;;2.67;;
15944;SDS011;30172;48.832;8.732;2022-09-16T12:31:36;5.05;;;2.85;;
15944;SDS011;30172;48.832;8.732;2022-09-16T12:34:08;3.67;;;2.30;;
15944;SDS011;30172;48.832;8.732;2022-09-16T12:36:37;4.80;;;2.08;;
15944;SDS011;30172;48.832;8.732;2022-09-16T12:39:04;6.22;;;2.47;;
15944;SDS011;30172;48.832;8.732;2022-09-16T12:44:23;3.80;;;2.50;;
15944;SDS011;30172;48.832;8.732;2022-09-16T12:58:07;5.85;;;2.10;;
15944;SDS011;30172;48.832;8.732;2022-09-16T13:03:40;4.80;;;2.08;;
15944;SDS011;30172;48.832;8.732;2022-09-16T13:06:27;3.83;;;2.00;;
15944;SDS011;30172;48.832;8.732;2022-09-16T13:08:54;4.82;;;1.90;;
15944;SDS011;30172;48.832;8.732;2022-09-16T13:11:21;4.80;;;1.90;;
15944;SDS011;30172;48.832;8.732;2022-09-16T13:13:49;2.72;;;1.70;;
15944;SDS011;30172;48.832;8.732;2022-09-16T13:22:29;8.77;;;1.83;;
15944;SDS011;30172;48.832;8.732;2022-09-16T13:25:05;4.15;;;1.90;;
15944;SDS011;30172;48.832;8.732;2022-09-16T13:27:35;3.75;;;2.28;;
15944;SDS011;30172;48.832;8.732;2022-09-16T13:37:42;2.85;;;1.63;;
15944;SDS011;30172;48.832;8.732;2022-09-16T13:40:18;3.70;;;1.88;;
15944;SDS011;30172;48.832;8.732;2022-09-16T13:42:47;4.10;;;2.08;;
15944;SDS011;30172;48.832;8.732;2022-09-16T13:45:32;3.30;;;1.60;;
15944;SDS011;30172;48.832;8.732;2022-09-16T13:48:09;3.08;;;2.00;;
15944;SDS011;30172;48.832;8.732;2022-09-16T13:50:36;2.65;;;1.85;;
15944;SDS011;30172;48.832;8.732;2022-09-16T13:53:09;4.47;;;1.95;;
15944;SDS011;30172;48.832;8.732;2022-09-16T13:55:35;5.18;;;2.10;;
15944;SDS011;30172;48.832;8.732;2022-09-16T13:58:24;3.22;;;1.63;;
15944;SDS011;30172;48.832;8.732;2022-09-16T14:01:10;3.83;;;2.15;;
15944;SDS011;30172;48.832;8.732;2022-09-16T14:06:41;2.67;;;1.80;;
15944;SDS011;30172;48.832;8.732;2022-09-16T14:09:21;6.18;;;2.45;;
15944;SDS011;30172;48.832;8.732;2022-09-16T14:14:58;5.60;;;2.20;;
15944;SDS011;30172;48.832;8.732;2022-09-16T14:17:37;2.47;;;1.98;;
15944;SDS011;30172;48.832;8.732;2022-09-16T14:20:03;4.57;;;1.80;;
15944;SDS011;30172;48.832;8.732;2022-09-16T14:22:29;3.10;;;1.75;;
15944;SDS011;30172;48.832;8.732;2022-09-16T14:24:55;3.03;;;2.00;;
15944;SDS011;30172;48.832;8.732;2022-09-16T14:27:30;2.13;;;1.77;;
15944;SDS011;30172;48.832;8.732;2022-09-16T14:30:14;4.10;;;2.45;;
15944;SDS011;30172;48.832;8.732;2022-09-16T14:32:41;5.28;;;2.00;;
15944;SDS011;30172;48.832;8.732;2022-09-16T14:35:11;5.28;;;1.73;;
15944;SDS011;30172;48.832;8.732;2022-09-16T14:37:39;3.78;;;1.75;;
15944;SDS011;30172;48.832;8.732;2022-09-16T14:40:11;4.20;;;1.90;;
15944;SDS011;30172;48.832;8.732;2022-09-16T14:42:54;4.35;;;1.80;;
15944;SDS011;30172;48.832;8.732;2022-09-16T14:45:22;5.40;;;1.90;;
15944;SDS011;30172;48.832;8.732;2022-09-16T14:47:48;3.03;;;1.60;;
15944;SDS011;30172;48.832;8.732;2022-09-16T14:50:15;3.58;;;2.08;;
15944;SDS011;30172;48.832;8.732;2022-09-16T14:52:52;7.22;;;1.98;;
15944;SDS011;30172;48.832;8.732;2022-09-16T14:55:20;3.08;;;1.75;;
15944;SDS011;30172;48.832;8.732;2022-09-16T14:57:46;2.33;;;1.65;;
15944;SDS011;30172;48.832;8.732;2022-09-16T15:00:12;5.57;;;1.88;;
15944;SDS011;30172;48.832;8.732;2022-09-16T15:02:41;4.85;;;1.80;;
15944;SDS011;30172;48.832;8.732;2022-09-16T15:08:15;4.50;;;1.60;;
15944;SDS011;30172;48.832;8.732;2022-09-16T15:10:46;3.22;;;1.58;;
15944;SDS011;30172;48.832;8.732;2022-09-16T15:13:13;4.55;;;1.52;;
15944;SDS011;30172;48.832;8.732;2022-09-16T15:15:44;3.80;;;1.70;;
15944;SDS011;30172;48.832;8.732;2022-09-16T15:18:18;2.97;;;1.88;;
15944;SDS011;30172;48.832;8.732;2022-09-16T15:20:49;5.78;;;1.80;;
15944;SDS011;30172;48.832;8.732;2022-09-16T15:23:19;4.32;;;2.05;;
15944;SDS011;30172;48.832;8.732;2022-09-16T15:25:50;4.38;;;1.77;;
15944;SDS011;30172;48.832;8.732;2022-09-16T15:28:18;4.30;;;1.63;;
15944;SDS011;30172;48.832;8.732;2022-09-16T15:30:47;4.60;;;1.50;;
15944;SDS011;30172;48.832;8.732;2022-09-16T15:33:49;2.60;;;1.55;;
15944;SDS011;30172;48.832;8.732;2022-09-16T15:36:11;4.45;;;1.48;;
15944;SDS011;30172;48.832;8.732;2022-09-16T15:39:00;3.97;;;1.42;;
15944;SDS011;30172;48.832;8.732;2022-09-16T15:41:25;1.88;;;1.77;;
15944;SDS011;30172;48.832;8.732;2022-09-16T15:43:50;5.40;;;1.60;;
15944;SDS011;30172;48.832;8.732;2022-09-16T15:46:17;2.17;;;1.48;;
15944;SDS011;30172;48.832;8.732;2022-09-16T15:48:56;1.77;;;1.45;;
15944;SDS011;30172;48.832;8.732;2022-09-16T15:51:33;2.17;;;1.60;;
15944;SDS011;30172;48.832;8.732;2022-09-16T15:54:05;4.28;;;1.60;;
15944;SDS011;30172;48.832;8.732;2022-09-16T15:56:36;5.10;;;1.80;;
15944;SDS011;30172;48.832;8.732;2022-09-16T15:59:19;1.95;;;1.73;;
15944;SDS011;30172;48.832;8.732;2022-09-16T16:01:50;4.65;;;1.40;;
15944;SDS011;30172;48.832;8.732;2022-09-16T16:04:29;4.97;;;1.85;;
15944;SDS011;30172;48.832;8.732;2022-09-16T16:06:56;4.28;;;1.58;;
15944;SDS011;30172;48.832;8.732;2022-09-16T16:14:26;3.65;;;1.80;;
15944;SDS011;30172;48.832;8.732;2022-09-16T16:16:56;3.63;;;1.73;;
15944;SDS011;30172;48.832;8.732;2022-09-16T16:19:27;5.13;;;1.42;;
15944;SDS011;30172;48.832;8.732;2022-09-16T16:21:53;4.70;;;1.80;;
15944;SDS011;30172;48.832;8.732;2022-09-16T16:24:18;3.17;;;1.40;;
15944;SDS011;30172;48.832;8.732;2022-09-16T16:26:43;3.35;;;1.58;;
15944;SDS011;30172;48.832;8.732;2022-09-16T16:29:09;3.90;;;1.33;;
15944;SDS011;30172;48.832;8.732;2022-09-16T16:31:34;7.88;;;1.95;;
15944;SDS011;30172;48.832;8.732;2022-09-16T16:34:01;2.42;;;1.80;;
15944;SDS011;30172;48.832;8.732;2022-09-16T16:36:26;4.57;;;1.92;;
15944;SDS011;30172;48.832;8.732;2022-09-16T16:38:52;4.65;;;1.80;;
15944;SDS011;30172;48.832;8.732;2022-09-16T16:41:20;5.35;;;1.60;;
15944;SDS011;30172;48.832;8.732;2022-09-16T16:43:47;2.53;;;1.65;;
15944;SDS011;30172;48.832;8.732;2022-09-16T16:46:12;5.95;;;1.73;;
15944;SDS011;30172;48.832;8.732;2022-09-16T16:48:37;3.47;;;1.67;;
15944;SDS011;30172;48.832;8.732;2022-09-16T16:51:04;3.17;;;1.60;;
15944;SDS011;30172;48.832;8.732;2022-09-16T16:53:31;3.63;;;1.50;;
15944;SDS011;30172;48.832;8.732;2022-09-16T16:56:04;4.00;;;1.80;;
15944;SDS011;30172;48.832;8.732;2022-09-16T16:58:34;3.65;;;1.55;;
15944;SDS011;30172;48.832;8.732;2022-09-16T17:01:16;5.47;;;2.38;;
15944;SDS011;30172;48.832;8.732;2022-09-16T17:03:43;3.40;;;1.48;;
15944;SDS011;30172;48.832;8.732;2022-09-16T17:06:10;3.50;;;1.60;;
15944;SDS011;30172;48.832;8.732;2022-09-16T17:08:37;2.90;;;1.30;;
15944;SDS011;30172;48.832;8.732;2022-09-16T17:13:31;4.80;;;1.80;;
15944;SDS011;30172;48.832;8.732;2022-09-16T17:15:56;5.75;;;1.52;;
15944;SDS011;30172;48.832;8.732;2022-09-16T17:18:21;3.03;;;1.17;;
15944;SDS011;30172;48.832;8.732;2022-09-16T17:20:47;3.78;;;1.40;;
15944;SDS011;30172;48.832;8.732;2022-09-16T17:23:12;4.28;;;1.85;;
15944;SDS011;30172;48.832;8.732;2022-09-16T17:25:37;3.80;;;1.53;;